Brandy Bar — WDF7323 — position and weather

sailwx.info

Track history (hours):
 
Tides and Currents Weather Stations Pressure Air Temp Water Temp Dewpoint Dewpoint Depression Visibility Wind Speed Wind Dir Waves Ship Positions

Brandy Bar

Owner: Brandy Bar, Tiburon, CA. More information available from US FCC via Universal Licensing System and Coast Guard Vessel Documentation Center.

Last reported at 2017-Mar-25 19:28 UTC. Time now 2017-Apr-23 08:11 UTC.
Position N 38°02' W 122°08'.
Warning: this ship's position is 28 days out of date.

Type: Towing. MMSI: 367483310.

Date/timePositionNaut miles runAvg speedWind from/ knotsBaromVisibWave heightAir tempDewpointWater temp
2017-Mar-25 19:28N 38°02' W 122°08'7 7.4
2017-Mar-25 18:33N 38°03' W 122°16'7 7.3
2017-Mar-25 17:33N 38°00' W 122°24'7 7.2
2017-Mar-25 16:33N 37°53' W 122°24'6 5.9
2017-Mar-25 15:33N 37°48' W 122°20'2 0.0
2017-Mar-24 01:34N 37°48' W 122°18'7 7.0
2017-Mar-24 00:33N 37°53' W 122°24'7 6.7
2017-Mar-23 23:33N 37°59' W 122°25'8 8.1
2017-Mar-23 22:33N 38°03' W 122°16'9 8.6
2017-Mar-23 21:33N 38°03' W 122°05'  
2017-Mar-19 05:16N 38°03' W 121°58'5 5.7
2017-Mar-19 04:21N 38°03' W 122°05'5 5.4
2017-Mar-19 03:22N 38°03' W 122°12'5 6.0
2017-Mar-19 02:33N 38°03' W 122°18'6 6.3
2017-Mar-19 01:33N 37°60' W 122°25'4 4.5
2017-Mar-19 00:33N 37°58' W 122°30'0 0.1
2017-Mar-18 23:33N 37°58' W 122°30'3 3.4
2017-Mar-18 22:33N 37°56' W 122°27'5 5.5
2017-Mar-18 21:33N 37°51' W 122°25'3 2.5
2017-Mar-18 20:34N 37°49' W 122°25'0 0.4
2017-Mar-18 19:33N 37°49' W 122°25'10 9.5
2017-Mar-18 18:33N 37°58' W 122°26'1110.7
2017-Mar-18 17:33N 38°04' W 122°14'1010.2
2017-Mar-18 16:33N 38°04' W 122°01'  
Track history (hours):
 
Tides and Currents Weather Stations Pressure Air Temp Water Temp Dewpoint Dewpoint Depression Visibility Wind Speed Wind Dir Waves Ship Positions

Brandy Bar

Owner: Brandy Bar, Tiburon, CA. More information available from US FCC via Universal Licensing System and Coast Guard Vessel Documentation Center.

Last reported at 2017-Mar-25 19:28 UTC. Time now 2017-Apr-23 08:11 UTC.
Position N 38°02' W 122°08'.
Warning: this ship's position is 28 days out of date.

Type: Towing. MMSI: 367483310.

Date/timePositionNaut miles runAvg speedWind from/ knotsBaromVisibWave heightAir tempDewpointWater temp
2017-Mar-25 19:28N 38°02' W 122°08'7 7.4
2017-Mar-25 18:33N 38°03' W 122°16'7 7.3
2017-Mar-25 17:33N 38°00' W 122°24'7 7.2
2017-Mar-25 16:33N 37°53' W 122°24'6 5.9
2017-Mar-25 15:33N 37°48' W 122°20'2 0.0
2017-Mar-24 01:34N 37°48' W 122°18'7 7.0
2017-Mar-24 00:33N 37°53' W 122°24'7 6.7
2017-Mar-23 23:33N 37°59' W 122°25'8 8.1
2017-Mar-23 22:33N 38°03' W 122°16'9 8.6
2017-Mar-23 21:33N 38°03' W 122°05'  
2017-Mar-19 05:16N 38°03' W 121°58'5 5.7
2017-Mar-19 04:21N 38°03' W 122°05'5 5.4
2017-Mar-19 03:22N 38°03' W 122°12'5 6.0
2017-Mar-19 02:33N 38°03' W 122°18'6 6.3
2017-Mar-19 01:33N 37°60' W 122°25'4 4.5
2017-Mar-19 00:33N 37°58' W 122°30'0 0.1
2017-Mar-18 23:33N 37°58' W 122°30'3 3.4
2017-Mar-18 22:33N 37°56' W 122°27'5 5.5
2017-Mar-18 21:33N 37°51' W 122°25'3 2.5
2017-Mar-18 20:34N 37°49' W 122°25'0 0.4
2017-Mar-18 19:33N 37°49' W 122°25'10 9.5
2017-Mar-18 18:33N 37°58' W 122°26'1110.7
2017-Mar-18 17:33N 38°04' W 122°14'1010.2
2017-Mar-18 16:33N 38°04' W 122°01'  

Dump ship's entire track history